Time;durP1;ratioP1;P1;durP2;ratioP2;P2;SDS_P1;SDS_P2;PMS_P1;PMS_P2;Temp;Humidity;BMP_temperature;BMP_pressure;BME280_temperature;BME280_humidity;BME280_pressure;Samples;Min_cycle;Max_cycle;Signal;HPM_P1;HPM_P2
2023/12/01 00:05:21;;;;;;;39.50;15.15;;;0.40;99.90;;;;;;20456130;28;21264;-84
2023/12/01 00:15:24;;;;;;;40.53;14.52;;;0.30;99.90;;;;;;20455432;28;20111;-84
2023/12/01 00:25:28;;;;;;;36.25;13.43;;;0.40;99.90;;;;;;20443684;28;20058;-84
2023/12/01 00:35:29;;;;;;;34.58;11.70;;;0.40;99.90;;;;;;20449775;28;20069;-84
2023/12/01 00:45:30;;;;;;;32.08;12.35;;;0.40;99.90;;;;;;20474935;28;20043;-83
2023/12/01 00:55:48;;;;;;;30.50;10.40;;;0.40;99.90;;;;;;20482583;28;20484;-84
2023/12/01 01:05:51;;;;;;;30.95;10.45;;;0.40;99.90;;;;;;20450898;28;20486;-86
2023/12/01 01:15:58;;;;;;;37.95;12.93;;;0.40;99.90;;;;;;20486431;28;20035;-84
2023/12/01 01:25:59;;;;;;;40.55;13.25;;;0.50;99.90;;;;;;20515112;28;20456;-83
2023/12/01 01:36:10;;;;;;;39.10;12.45;;;0.40;99.90;;;;;;20482138;28;20117;-83
2023/12/01 01:46:14;;;;;;;40.15;13.32;;;0.40;99.90;;;;;;20490505;28;20059;-83
2023/12/01 01:56:18;;;;;;;35.72;13.50;;;0.40;99.90;;;;;;20522962;28;20035;-84
2023/12/01 02:06:20;;;;;;;36.95;13.30;;;0.40;99.90;;;;;;20476593;28;20032;-86
2023/12/01 02:16:21;;;;;;;35.13;11.77;;;0.40;99.90;;;;;;20429721;28;20102;-83
2023/12/01 02:26:28;;;;;;;32.10;12.25;;;0.50;99.90;;;;;;20447759;28;20501;-85
2023/12/01 02:36:43;;;;;;;35.08;12.30;;;0.40;99.90;;;;;;20437750;28;20043;-85
2023/12/01 02:46:44;;;;;;;30.70;10.82;;;0.50;99.90;;;;;;20471971;28;20121;-85
2023/12/01 02:56:44;;;;;;;35.88;11.77;;;0.60;99.90;;;;;;20412113;28;20042;-82
2023/12/01 03:06:48;;;;;;;32.05;11.10;;;0.60;99.90;;;;;;20446962;28;20066;-83
2023/12/01 03:16:51;;;;;;;35.47;12.38;;;0.60;99.90;;;;;;20453086;28;20397;-83
2023/12/01 03:26:52;;;;;;;37.05;11.85;;;0.70;99.90;;;;;;20460366;28;20595;-81
2023/12/01 03:37:01;;;;;;;35.20;11.82;;;0.70;99.90;;;;;;20449075;28;20496;-82
2023/12/01 03:47:02;;;;;;;31.25;11.65;;;0.70;99.90;;;;;;20409674;28;20555;-82
2023/12/01 03:57:02;;;;;;;32.97;11.88;;;0.70;99.90;;;;;;20400543;28;20414;-83
2023/12/01 04:07:12;;;;;;;38.90;12.05;;;0.70;99.90;;;;;;20413903;28;20044;-83
2023/12/01 04:17:14;;;;;;;35.38;12.07;;;0.70;99.90;;;;;;20498178;28;20038;-84
2023/12/01 04:27:21;;;;;;;35.13;12.32;;;0.70;99.90;;;;;;20505932;28;20059;-84
2023/12/01 04:37:42;;;;;;;36.38;12.52;;;0.80;99.90;;;;;;20483436;28;20079;-80
2023/12/01 04:47:54;;;;;;;36.67;13.77;;;0.80;99.90;;;;;;20493038;28;20127;-86
2023/12/01 04:57:55;;;;;;;47.58;16.42;;;0.80;99.90;;;;;;20409328;28;20044;-84
2023/12/01 05:08:04;;;;;;;48.22;16.08;;;0.90;99.90;;;;;;20401947;28;20513;-85
2023/12/01 05:18:12;;;;;;;38.90;14.27;;;0.90;99.90;;;;;;20323192;28;20051;-84
2023/12/01 05:39:12;;;;;;;37.20;13.48;;;1.00;99.90;;;;;;20398986;28;20043;-84
2023/12/01 05:49:16;;;;;;;40.50;14.80;;;1.00;99.90;;;;;;20385477;28;20044;-86
2023/12/01 05:59:16;;;;;;;44.08;14.63;;;1.10;99.90;;;;;;20394342;28;20044;-86
2023/12/01 06:09:29;;;;;;;37.67;12.77;;;1.00;99.90;;;;;;20401877;28;20044;-85
2023/12/01 06:19:33;;;;;;;35.95;13.75;;;1.00;99.90;;;;;;20413440;28;20447;-84
2023/12/01 06:29:37;;;;;;;37.92;12.88;;;1.00;99.90;;;;;;20409286;28;20127;-83
2023/12/01 06:39:40;;;;;;;37.20;13.27;;;1.00;99.90;;;;;;20457013;28;20575;-85
2023/12/01 06:49:50;;;;;;;43.08;14.55;;;1.10;99.90;;;;;;20403401;28;20075;-84
2023/12/01 07:00:41;;;;;;;40.83;13.45;;;1.10;99.90;;;;;;20445790;28;20039;-83
2023/12/01 07:10:35;;;;;;;44.63;14.82;;;1.10;99.90;;;;;;20440824;28;20039;-85
2023/12/01 07:20:48;;;;;;;41.85;13.73;;;1.20;99.90;;;;;;20439540;28;20034;-85
2023/12/01 07:30:51;;;;;;;39.20;14.23;;;1.10;99.90;;;;;;20454540;28;20079;-82
2023/12/01 07:41:00;;;;;;;39.42;14.25;;;1.10;99.90;;;;;;20439788;28;20040;-86
2023/12/01 07:51:07;;;;;;;47.35;14.18;;;1.00;99.90;;;;;;20442116;28;20141;-87
2023/12/01 08:01:14;;;;;;;47.58;16.15;;;1.10;99.90;;;;;;20470385;28;20116;-87
2023/12/01 08:11:21;;;;;;;43.20;14.57;;;1.10;99.90;;;;;;20467320;28;20497;-86
2023/12/01 08:21:34;;;;;;;39.88;13.35;;;1.10;99.90;;;;;;20429388;28;20033;-88
2023/12/01 08:31:45;;;;;;;36.97;12.77;;;1.10;98.70;;;;;;20461295;28;20042;-87
2023/12/01 08:42:04;;;;;;;31.40;11.15;;;1.10;91.40;;;;;;20445424;28;20529;-89
2023/12/01 08:52:09;;;;;;;34.92;11.40;;;1.10;70.50;;;;;;20423135;28;20047;-85
2023/12/01 09:02:13;;;;;;;33.60;11.23;;;1.20;42.50;;;;;;20479583;28;20090;-84
2023/12/01 09:12:14;;;;;;;29.98;11.07;;;1.10;25.10;;;;;;20459921;28;20043;-86
2023/12/01 09:22:29;;;;;;;30.40;9.82;;;1.40;3.10;;;;;;20426037;28;20045;-85
2023/12/01 09:32:30;;;;;;;34.15;9.85;;;1.30;1.00;;;;;;20434847;28;20187;-85
2023/12/01 09:42:33;;;;;;;25.83;8.80;;;1.20;1.00;;;;;;20444222;28;20040;-88
2023/12/01 09:52:34;;;;;;;29.02;10.13;;;1.50;1.00;;;;;;20446904;28;20126;-86
2023/12/01 10:02:43;;;;;;;25.73;9.75;;;1.60;1.00;;;;;;20426174;28;20309;-84
2023/12/01 10:13:26;;;;;;;21.45;7.55;;;1.40;1.00;;;;;;20469587;28;20031;-86
2023/12/01 10:23:27;;;;;;;24.13;7.70;;;1.60;1.00;;;;;;20415959;28;20031;-87
2023/12/01 10:33:28;;;;;;;25.75;8.57;;;1.60;1.00;;;;;;20478344;28;20043;-87
2023/12/01 10:43:30;;;;;;;27.80;8.55;;;1.80;1.00;;;;;;20446654;28;20074;-86
2023/12/01 10:53:31;;;;;;;24.42;8.30;;;2.00;1.00;;;;;;20479099;28;20038;-87
2023/12/01 11:03:43;;;;;;;25.27;8.65;;;2.20;1.00;;;;;;20540345;28;20528;-86
2023/12/01 11:14:04;;;;;;;23.67;8.80;;;2.40;1.00;;;;;;20481230;28;20125;-85
2023/12/01 11:24:32;;;;;;;25.98;7.78;;;2.10;1.00;;;;;;20420975;28;20048;-85
2023/12/01 11:34:33;;;;;;;;;;;1.80;1.00;;;;;;20464387;28;20030;-87
2023/12/01 11:45:04;;;;;;;20.65;7.88;;;1.60;1.00;;;;;;20454300;28;19924;-87
2023/12/01 11:55:18;;;;;;;24.10;8.48;;;1.50;1.00;;;;;;20431659;28;20055;-87
2023/12/01 12:05:24;;;;;;;20.77;7.75;;;1.70;1.00;;;;;;20439746;28;20133;-86
2023/12/01 12:15:25;;;;;;;21.77;9.48;;;2.40;1.00;;;;;;20453077;28;20055;-86
2023/12/01 12:25:37;;;;;;;21.35;9.30;;;3.20;1.00;;;;;;20470583;28;20098;-86
2023/12/01 12:35:39;;;;;;;24.15;8.63;;;3.30;1.00;;;;;;20488261;28;20031;-86
2023/12/01 12:45:40;;;;;;;20.85;9.70;;;3.30;1.00;;;;;;20451227;28;20039;-86
2023/12/01 12:55:40;;;;;;;17.10;7.53;;;3.30;1.00;;;;;;20444933;28;20063;-86
2023/12/01 13:05:41;;;;;;;19.13;6.88;;;3.50;1.00;;;;;;20431501;28;20031;-86
2023/12/01 13:16:04;;;;;;;19.88;7.78;;;3.10;1.00;;;;;;20465685;28;20579;-87
2023/12/01 13:26:05;;;;;;;17.60;8.10;;;3.00;1.00;;;;;;20439268;28;20050;-86
2023/12/01 13:36:09;;;;;;;16.67;6.95;;;2.70;1.00;;;;;;20430268;28;20101;-86
2023/12/01 13:46:10;;;;;;;15.63;7.00;;;2.40;1.00;;;;;;20460760;28;20048;-86
2023/12/01 13:56:14;;;;;;;16.63;7.53;;;2.20;1.00;;;;;;20467264;28;20070;-91
2023/12/01 14:17:31;;;;;;;17.95;7.55;;;1.90;1.00;;;;;;20478424;28;20039;-85
2023/12/01 14:38:47;;;;;;;20.23;8.70;;;1.70;1.00;;;;;;20539156;28;20027;-84
2023/12/01 14:49:38;;;;;;;19.48;8.05;;;1.60;1.00;;;;;;20293696;28;20123;-87
2023/12/01 15:00:31;;;;;;;16.63;7.47;;;1.50;1.00;;;;;;20319417;29;20109;-84
2023/12/01 15:10:50;;;;;;;19.27;7.47;;;1.50;1.00;;;;;;20301850;28;20052;-87
2023/12/01 15:21:30;;;;;;;;;;;;;;;;;;;;;
2023/12/01 15:32:12;;;;;;;19.83;8.77;;;1.40;1.00;;;;;;20443389;28;20508;-88
2023/12/01 15:42:30;;;;;;;18.92;7.78;;;1.20;1.00;;;;;;20506967;28;20441;-88
2023/12/01 15:52:42;;;;;;;17.45;7.43;;;1.00;1.00;;;;;;20473845;28;20512;-87
2023/12/01 16:02:43;;;;;;;18.02;7.78;;;1.00;1.00;;;;;;20482797;28;20118;-87
2023/12/01 16:12:44;;;;;;;20.23;7.70;;;0.90;1.00;;;;;;20441384;28;20039;-85
2023/12/01 16:22:48;;;;;;;18.83;7.97;;;0.80;1.00;;;;;;20439995;28;20047;-86
2023/12/01 16:32:54;;;;;;;19.35;7.95;;;0.70;1.00;;;;;;20479271;28;20458;-85
2023/12/01 16:43:14;;;;;;;22.27;9.02;;;0.70;1.00;;;;;;20504526;28;20800;-86
2023/12/01 16:53:18;;;;;;;23.25;10.00;;;0.70;1.00;;;;;;20525041;28;20043;-86
2023/12/01 17:03:25;;;;;;;25.30;9.50;;;0.60;1.00;;;;;;20467410;28;20216;-86
2023/12/01 17:13:25;;;;;;;23.98;8.70;;;0.50;1.00;;;;;;20530196;28;20039;-87
2023/12/01 17:23:44;;;;;;;26.67;9.73;;;0.40;1.00;;;;;;20500356;28;20094;-84
2023/12/01 17:33:45;;;;;;;23.48;10.07;;;0.30;1.00;;;;;;20513679;28;20051;-84
2023/12/01 17:43:47;;;;;;;29.80;14.00;;;0.20;1.00;;;;;;20517924;28;20129;-85
2023/12/01 17:53:50;;;;;;;30.02;12.23;;;0.10;1.00;;;;;;20481991;28;20043;-85
2023/12/01 18:04:27;;;;;;;28.17;11.15;;;0.10;1.00;;;;;;20467556;28;20552;-88
2023/12/01 18:14:27;;;;;;;27.77;9.85;;;0.10;1.00;;;;;;20455341;28;20039;-86
2023/12/01 18:24:28;;;;;;;22.17;10.05;;;0.10;1.00;;;;;;20508074;28;20065;-86
2023/12/01 18:34:32;;;;;;;24.75;9.45;;;0.10;1.00;;;;;;20507818;28;20079;-87
2023/12/01 18:44:33;;;;;;;23.75;9.07;;;0.10;1.00;;;;;;20481158;28;20050;-86
2023/12/01 18:54:36;;;;;;;23.63;9.55;;;0.10;1.00;;;;;;20475654;28;20043;-86
2023/12/01 19:04:41;;;;;;;34.70;14.50;;;0.10;1.00;;;;;;20501031;28;20293;-85
2023/12/01 19:14:45;;;;;;;37.13;15.15;;;0.10;1.00;;;;;;20543485;28;20114;-86
2023/12/01 19:24:45;;;;;;;32.38;13.18;;;0.10;1.00;;;;;;20507207;28;20101;-86
2023/12/01 19:34:49;;;;;;;28.48;11.98;;;0.10;1.00;;;;;;20539232;28;20042;-86
2023/12/01 19:44:55;;;;;;;28.70;11.00;;;-0.10;1.00;;;;;;20520166;28;20057;-86
2023/12/01 19:55:00;;;;;;;;;;;-0.20;1.00;;;;;;20572413;28;20057;-88
2023/12/01 20:05:09;;;;;;;25.40;10.95;;;-0.30;1.00;;;;;;20530513;28;20403;-86
2023/12/01 20:15:14;;;;;;;28.13;10.43;;;-0.30;1.00;;;;;;20566225;28;20203;-83
2023/12/01 20:25:47;;;;;;;26.77;10.40;;;-0.50;1.00;;;;;;20548432;28;20035;-87
2023/12/01 20:35:57;;;;;;;27.60;10.75;;;-0.60;1.00;;;;;;20567130;28;20055;-85
2023/12/01 20:46:04;;;;;;;31.90;12.38;;;-0.50;1.00;;;;;;20563436;28;20035;-85
2023/12/01 20:56:09;;;;;;;40.83;15.02;;;-0.50;1.00;;;;;;20521923;28;20395;-87
2023/12/01 21:06:10;;;;;;;35.83;15.27;;;-0.50;1.00;;;;;;20530091;28;20039;-85
2023/12/01 21:16:17;;;;;;;36.75;15.80;;;-0.50;1.00;;;;;;20580138;28;20102;-87
2023/12/01 21:26:22;;;;;;;36.25;14.93;;;-0.70;1.00;;;;;;20590492;28;20030;-87
2023/12/01 21:36:48;;;;;;;33.20;11.27;;;-0.70;8.00;;;;;;20546210;28;20046;-86
2023/12/01 21:46:54;;;;;;;36.70;14.33;;;-0.50;3.60;;;;;;20483723;28;20059;-88
2023/12/01 21:57:02;;;;;;;31.52;12.95;;;-0.40;2.20;;;;;;20484193;28;20056;-87
2023/12/01 22:07:06;;;;;;;28.90;11.73;;;-0.40;10.80;;;;;;20483403;28;20036;-88
2023/12/01 22:17:07;;;;;;;28.65;11.27;;;-0.20;3.60;;;;;;20417894;28;20473;-87
2023/12/01 22:27:08;;;;;;;29.30;12.85;;;-0.30;1.00;;;;;;20445299;28;20433;-88
2023/12/01 22:37:11;;;;;;;29.67;12.20;;;-0.30;3.40;;;;;;20449079;28;20040;-88
2023/12/01 22:47:12;;;;;;;30.50;12.30;;;-0.30;1.00;;;;;;20506588;28;20039;-85
2023/12/01 22:57:13;;;;;;;31.80;10.90;;;-0.30;1.00;;;;;;20527596;28;20026;-88
2023/12/01 23:07:16;;;;;;;29.77;11.10;;;-0.30;1.00;;;;;;20531639;28;20447;-88
2023/12/01 23:17:23;;;;;;;30.38;11.93;;;-0.30;1.00;;;;;;20549290;28;20051;-87
2023/12/01 23:27:30;;;;;;;33.40;12.02;;;-0.20;1.00;;;;;;20538201;28;20143;-89
2023/12/01 23:37:34;;;;;;;29.77;11.88;;;-0.30;1.00;;;;;;20541713;28;20047;-81
2023/12/01 23:47:40;;;;;;;30.83;11.68;;;-0.20;1.00;;;;;;20628374;28;20019;-84
2023/12/01 23:57:46;;;;;;;27.20;11.18;;;-0.30;1.00;;;;;;20624492;28;20062;-83
